Terminal Aerodrome Forecast
Issued by NWS Charleston, SC

Home | Current Version | Previous Version | Text Only | Print | Product List | Glossary On
Versions: 1 2 3 4 5 6 7 8 9 10 11 12 13 14 15 16 17 18 19
000
FTUS42 KCHS 231100
TAFCHS
TAF
KCHS 231120Z 2312/2412 29004KT P6SM SCT025
     FM231900 20008KT P6SM VCTS FEW030CB SCT040 BKN250
     FM232200 20007KT P6SM FEW050 SCT250=

USA.gov is the U.S. government's official web portal to all federal, state and local government web resources and services.